Time;durP1;ratioP1;P1;durP2;ratioP2;P2;SDS_P1;SDS_P2;PMS_P1;PMS_P2;Temp;Humidity;BMP_temperature;BMP_pressure;BME280_temperature;BME280_humidity;BME280_pressure;Samples;Min_cycle;Max_cycle;Signal;HPM_P1;HPM_P2
2023/10/23 00:01:23;;;;;;;;;;;;;;;16.59;66.22;99706.63;3164470;28;20341;-68
2023/10/23 00:02:54;;;;;;;;;;;;;;;16.58;66.14;99710.22;3160270;28;19923;-68
2023/10/23 00:04:26;;;;;;;;;;;;;;;16.56;66.27;99715.59;3166130;28;20064;-67
2023/10/23 00:05:56;;;;;;;;;;;;;;;16.55;66.35;99708.63;3165208;28;20374;-63
2023/10/23 00:07:28;;;;;;;;;;;;;;;16.54;66.33;99709.59;3165930;28;20041;-66
2023/10/23 00:09:00;;;;;;;;;;;;;;;16.53;66.27;99707.06;3154303;28;19928;-66
2023/10/23 00:10:32;;;;;;;;;;;;;;;16.52;66.46;99708.84;3154577;28;20383;-66
2023/10/23 00:12:02;;;;;;;;;;;;;;;16.51;66.31;99706.34;3152378;28;19939;-67
2023/10/23 00:13:34;;;;;;;;;;;;;;;16.51;66.38;99706.34;3161173;28;20448;-66
2023/10/23 00:15:05;;;;;;;;;;;;;;;16.50;66.46;99713.38;3165670;28;19934;-67
2023/10/23 00:16:37;;;;;;;;;;;;;;;16.49;66.49;99706.44;3158136;28;19924;-67
2023/10/23 00:18:07;;;;;;;;;;;;;;;16.49;66.40;99705.63;3165479;28;19924;-64
2023/10/23 00:19:39;;;;;;;;;;;;;;;16.48;66.50;99704.78;3161240;28;19924;-66
2023/10/23 00:21:10;;;;;;;;;;;;;;;16.46;66.71;99705.84;3148672;28;19982;-67
2023/10/23 00:22:41;;;;;;;;;;;;;;;16.44;66.74;99711.19;3155063;28;20036;-67
2023/10/23 00:24:13;;;;;;;;;;;;;;;16.41;66.97;99703.53;3165591;28;19935;-64
2023/10/23 00:25:46;;;;;;;;;;;;;;;16.40;67.14;99706.28;3162611;28;20289;-64
2023/10/23 00:27:16;;;;;;;;;;;;;;;16.36;67.14;99709.13;3162602;28;19924;-64
2023/10/23 00:28:48;;;;;;;;;;;;;;;16.35;67.47;99703.97;3162901;28;19923;-64
2023/10/23 00:30:19;;;;;;;;;;;;;;;16.31;67.60;99713.00;3157615;28;19946;-64
2023/10/23 00:31:51;;;;;;;;;;;;;;;16.30;67.88;99713.97;3161117;28;19924;-64
2023/10/23 00:33:21;;;;;;;;;;;;;;;16.28;67.86;99708.81;3165546;28;19930;-64
2023/10/23 00:34:53;;;;;;;;;;;;;;;16.27;67.69;99717.66;3165515;28;20288;-64
2023/10/23 00:36:24;;;;;;;;;;;;;;;16.25;67.83;99716.91;3165178;28;19927;-62
2023/10/23 00:37:56;;;;;;;;;;;;;;;16.25;68.02;99716.06;3160381;28;19977;-63
2023/10/23 00:39:27;;;;;;;;;;;;;;;16.22;67.98;99708.41;3157322;28;20384;-63
2023/10/23 00:40:59;;;;;;;;;;;;;;;16.20;68.11;99713.75;3163921;28;19982;-62
2023/10/23 00:42:31;;;;;;;;;;;;;;;16.19;67.92;99713.88;3161214;28;20320;-62
2023/10/23 00:44:02;;;;;;;;;;;;;;;16.18;68.00;99718.28;3163186;28;20006;-62
2023/10/23 00:45:33;;;;;;;;;;;;;;;16.18;68.02;99718.28;3165412;28;20016;-62
2023/10/23 00:47:05;;;;;;;;;;;;;;;16.17;68.33;99723.66;3165340;28;19923;-63
2023/10/23 00:48:36;;;;;;;;;;;;;;;16.14;68.50;99733.41;3165081;28;20336;-62
2023/10/23 00:50:08;;;;;;;;;;;;;;;16.13;68.66;99733.53;3153995;28;19924;-63
2023/10/23 00:51:39;;;;;;;;;;;;;;;16.10;68.87;99731.94;3159532;28;19977;-65
2023/10/23 00:53:11;;;;;;;;;;;;;;;16.08;69.04;99733.84;3156756;28;20473;-63
2023/10/23 00:54:43;;;;;;;;;;;;;;;16.06;69.11;99735.75;3161595;28;19938;-63
2023/10/23 00:56:15;;;;;;;;;;;;;;;16.06;68.96;99737.50;3152069;28;19924;-63
2023/10/23 00:57:45;;;;;;;;;;;;;;;16.06;69.12;99737.50;3158354;28;19963;-63
2023/10/23 00:59:17;;;;;;;;;;;;;;;16.06;68.86;99735.75;3159297;28;19935;-63
2023/10/23 01:00:49;;;;;;;;;;;;;;;16.06;68.80;99735.75;3165250;28;19924;-63
2023/10/23 01:02:19;;;;;;;;;;;;;;;16.06;68.83;99735.75;3159231;28;20409;-64
2023/10/23 01:03:51;;;;;;;;;;;;;;;16.07;68.69;99732.16;3156822;28;19923;-63
2023/10/23 01:05:22;;;;;;;;;;;;;;;16.07;68.70;99731.34;3164618;28;19923;-63
2023/10/23 01:06:54;;;;;;;;;;;;;;;16.06;68.73;99735.75;3155937;28;20010;-64
2023/10/23 01:08:25;;;;;;;;;;;;;;;16.06;68.86;99734.88;3158141;28;20358;-63
2023/10/23 01:09:58;;;;;;;;;;;;;;;16.05;68.89;99734.06;3153344;28;20063;-63
2023/10/23 01:11:28;;;;;;;;;;;;;;;16.04;68.84;99736.81;3149549;28;19930;-63
2023/10/23 01:13:00;;;;;;;;;;;;;;;16.02;69.17;99736.88;3153607;28;19924;-63
2023/10/23 01:14:31;;;;;;;;;;;;;;;16.00;69.21;99736.19;3158406;28;19924;-64
2023/10/23 01:16:02;;;;;;;;;;;;;;;15.96;69.38;99732.06;3163987;28;19943;-64
2023/10/23 01:17:33;;;;;;;;;;;;;;;15.94;69.51;99728.69;3165038;28;19967;-63
2023/10/23 01:19:05;;;;;;;;;;;;;;;15.91;69.66;99726.28;3164824;28;19979;-63
2023/10/23 01:20:35;;;;;;;;;;;;;;;15.87;69.89;99725.66;3158859;28;20011;-63
2023/10/23 01:22:07;;;;;;;;;;;;;;;15.86;70.06;99737.09;3148811;28;20416;-63
2023/10/23 01:23:41;;;;;;;;;;;;;;;15.82;70.39;99726.91;3156097;28;19923;-63
2023/10/23 01:25:14;;;;;;;;;;;;;;;15.79;70.37;99738.44;3164847;28;20568;-64
2023/10/23 01:26:45;;;;;;;;;;;;;;;15.76;70.46;99735.19;3160910;28;19923;-64
2023/10/23 01:28:16;;;;;;;;;;;;;;;15.75;70.73;99738.78;3158700;28;20645;-64
2023/10/23 01:29:48;;;;;;;;;;;;;;;15.72;70.70;99736.38;3157739;28;20585;-63
2023/10/23 01:31:20;;;;;;;;;;;;;;;15.69;70.75;99738.25;3164926;28;19974;-64
2023/10/23 01:32:50;;;;;;;;;;;;;;;15.68;70.58;99735.72;3164162;28;19923;-64
2023/10/23 01:34:22;;;;;;;;;;;;;;;15.68;70.85;99735.72;3165037;28;20389;-63
2023/10/23 01:35:53;;;;;;;;;;;;;;;15.67;70.62;99732.25;3164642;28;20033;-64
2023/10/23 01:37:24;;;;;;;;;;;;;;;15.67;70.67;99736.63;3164904;28;20730;-64
2023/10/23 01:38:55;;;;;;;;;;;;;;;15.67;70.72;99734.00;3164500;28;19945;-64
2023/10/23 01:40:28;;;;;;;;;;;;;;;15.66;70.52;99737.59;3155364;28;19925;-64
2023/10/23 01:41:59;;;;;;;;;;;;;;;15.65;70.55;99728.88;3139748;28;19924;-64
2023/10/23 01:43:30;;;;;;;;;;;;;;;15.67;70.26;99734.88;3163615;28;20501;-64
2023/10/23 01:45:01;;;;;;;;;;;;;;;15.68;70.13;99741.81;3164582;28;19953;-63
2023/10/23 01:46:32;;;;;;;;;;;;;;;15.68;70.34;99736.56;3164029;28;20407;-63
2023/10/23 01:48:03;;;;;;;;;;;;;;;15.67;70.22;99727.00;3159549;28;19923;-63
2023/10/23 01:49:35;;;;;;;;;;;;;;;15.46;70.34;99697.75;3157872;28;19928;-62
2023/10/23 01:51:06;;;;;;;;;;;;;;;15.67;70.25;99729.63;3151813;28;20418;-63
2023/10/23 01:52:38;;;;;;;;;;;;;;;15.68;70.05;99731.31;3146249;28;19994;-63
2023/10/23 01:54:10;;;;;;;;;;;;;;;15.67;70.16;99724.38;3152877;28;20414;-63
2023/10/23 01:55:42;;;;;;;;;;;;;;;15.68;70.22;99730.47;3146649;28;19946;-63
2023/10/23 01:57:14;;;;;;;;;;;;;;;15.68;69.83;99728.69;3154425;28;19924;-63
2023/10/23 01:58:44;;;;;;;;;;;;;;;15.68;69.91;99720.81;3164429;28;20368;-64
2023/10/23 02:00:16;;;;;;;;;;;;;;;15.70;69.97;99723.31;3164439;28;20009;-63
2023/10/23 02:01:47;;;;;;;;;;;;;;;15.71;69.85;99725.03;3164594;28;19924;-63
2023/10/23 02:03:18;;;;;;;;;;;;;;;15.72;69.89;99720.59;3160256;28;19935;-63
2023/10/23 02:04:49;;;;;;;;;;;;;;;15.72;69.71;99720.59;3163591;28;19931;-62
2023/10/23 02:06:20;;;;;;;;;;;;;;;15.69;69.87;99719.88;3163899;28;19923;-62
2023/10/23 02:07:51;;;;;;;;;;;;;;;15.71;70.02;99721.56;3160922;28;19981;-62
2023/10/23 02:09:23;;;;;;;;;;;;;;;15.69;69.84;99722.50;3148493;28;20018;-65
2023/10/23 02:10:55;;;;;;;;;;;;;;;15.69;69.86;99727.75;3148937;28;19928;-67
2023/10/23 02:12:26;;;;;;;;;;;;;;;15.71;69.67;99726.81;3156538;28;19924;-66
2023/10/23 02:13:58;;;;;;;;;;;;;;;15.72;69.69;99728.47;3164309;28;19992;-67
2023/10/23 02:15:28;;;;;;;;;;;;;;;15.71;69.74;99730.28;3164821;28;20393;-66
2023/10/23 02:17:00;;;;;;;;;;;;;;;15.69;69.69;99730.38;3159039;28;20039;-65
2023/10/23 02:18:31;;;;;;;;;;;;;;;15.69;69.64;99725.13;3156402;28;20332;-67
2023/10/23 02:20:05;;;;;;;;;;;;;;;15.68;69.77;99726.06;3164520;28;19924;-66
2023/10/23 02:21:36;;;;;;;;;;;;;;;15.67;69.73;99727.00;3148687;28;19924;-67
2023/10/23 02:23:07;;;;;;;;;;;;;;;15.68;69.81;99730.47;3156982;28;19927;-66
2023/10/23 02:24:39;;;;;;;;;;;;;;;15.68;69.73;99733.09;3160603;28;20012;-66
2023/10/23 02:26:11;;;;;;;;;;;;;;;15.68;69.59;99733.09;3154779;28;19959;-66
2023/10/23 02:27:42;;;;;;;;;;;;;;;15.67;69.66;99734.88;3164439;28;19924;-64
2023/10/23 02:29:13;;;;;;;;;;;;;;;15.68;69.53;99741.81;3164736;28;19924;-67
2023/10/23 02:30:45;;;;;;;;;;;;;;;15.69;69.44;99742.66;3164122;28;20321;-65
2023/10/23 02:32:15;;;;;;;;;;;;;;;15.69;69.36;99740.88;3164091;28;19987;-65
2023/10/23 02:33:47;;;;;;;;;;;;;;;15.68;69.46;99739.19;3164366;28;19924;-66
2023/10/23 02:35:18;;;;;;;;;;;;;;;15.69;69.39;99743.50;3164162;28;20439;-65
2023/10/23 02:36:50;;;;;;;;;;;;;;;15.69;69.38;99747.91;3157382;28;20007;-66
2023/10/23 02:38:21;;;;;;;;;;;;;;;15.69;69.47;99745.28;3160128;28;19966;-66
2023/10/23 02:39:53;;;;;;;;;;;;;;;15.69;69.26;99743.50;3159895;28;19935;-66
2023/10/23 02:41:26;;;;;;;;;;;;;;;15.67;69.41;99740.13;3161920;28;20006;-66
2023/10/23 02:42:57;;;;;;;;;;;;;;;15.43;69.63;99702.38;3164491;28;20351;-66
2023/10/23 02:44:28;;;;;;;;;;;;;;;15.64;69.51;99745.53;3164840;28;20048;-66
2023/10/23 02:46:00;;;;;;;;;;;;;;;15.61;69.71;99739.66;3161988;28;19928;-66
2023/10/23 02:47:31;;;;;;;;;;;;;;;15.59;69.65;99739.78;3166217;28;19955;-66
2023/10/23 02:49:02;;;;;;;;;;;;;;;15.59;70.00;99745.03;3166842;28;20323;-65
2023/10/23 02:50:34;;;;;;;;;;;;;;;15.58;69.77;99742.50;3161818;28;19924;-65
2023/10/23 02:52:05;;;;;;;;;;;;;;;15.56;69.89;99741.75;3146835;28;19969;-65
2023/10/23 02:53:36;;;;;;;;;;;;;;;15.53;70.00;99745.44;3155479;28;20032;-66
2023/10/23 02:55:07;;;;;;;;;;;;;;;15.48;70.29;99752.78;3165881;28;19924;-63
2023/10/23 02:56:40;;;;;;;;;;;;;;;15.45;70.37;99759.06;3149738;28;20766;-66
2023/10/23 02:58:11;;;;;;;;;;;;;;;15.44;70.19;99752.13;3164298;28;19923;-65
2023/10/23 02:59:46;;;;;;;;;;;;;;;15.44;70.38;99744.28;3166547;28;19999;-66
2023/10/23 03:01:19;;;;;;;;;;;;;;;15.44;70.34;99749.53;3166269;28;19923;-65
2023/10/23 03:02:51;;;;;;;;;;;;;;;15.44;70.27;99744.28;3166037;28;19931;-66
2023/10/23 03:04:21;;;;;;;;;;;;;;;15.45;70.18;99745.09;3161696;28;19927;-66
2023/10/23 03:05:53;;;;;;;;;;;;;;;15.44;70.00;99751.31;3166094;28;20400;-66
2023/10/23 03:07:25;;;;;;;;;;;;;;;15.44;70.11;99741.66;3166265;28;20002;-66
2023/10/23 03:08:55;;;;;;;;;;;;;;;15.46;70.18;99750.22;3154129;28;19928;-66
2023/10/23 03:10:27;;;;;;;;;;;;;;;15.45;70.19;99742.47;3154307;28;20018;-66
2023/10/23 03:12:00;;;;;;;;;;;;;;;15.43;70.31;99750.44;3150259;28;20602;-65
2023/10/23 03:13:31;;;;;;;;;;;;;;;15.43;70.19;99747.81;3166215;28;19939;-65
2023/10/23 03:15:03;;;;;;;;;;;;;;;15.43;70.09;99749.59;3165967;28;19923;-65
2023/10/23 03:16:34;;;;;;;;;;;;;;;15.43;70.17;99752.22;3166038;28;20401;-65
2023/10/23 03:18:06;;;;;;;;;;;;;;;15.42;70.17;99756.63;3166363;28;19923;-65
2023/10/23 03:19:37;;;;;;;;;;;;;;;15.42;70.10;99751.41;3166703;28;19924;-65
2023/10/23 03:21:08;;;;;;;;;;;;;;;15.40;70.24;99748.03;3166371;28;19945;-66
2023/10/23 03:22:39;;;;;;;;;;;;;;;15.38;70.54;99759.56;3158307;28;19928;-66
2023/10/23 03:24:10;;;;;;;;;;;;;;;15.36;70.53;99761.47;3153453;28;19924;-64
2023/10/23 03:25:42;;;;;;;;;;;;;;;15.34;70.55;99761.53;3156633;28;20420;-66
2023/10/23 03:27:15;;;;;;;;;;;;;;;15.34;70.56;99763.34;3159634;28;19923;-67
2023/10/23 03:28:46;;;;;;;;;;;;;;;15.34;70.53;99765.97;3166572;28;19927;-67
2023/10/23 03:30:18;;;;;;;;;;;;;;;15.34;70.43;99774.66;3166446;28;19923;-66
2023/10/23 03:31:48;;;;;;;;;;;;;;;15.35;70.31;99765.00;3166036;28;20294;-66
2023/10/23 03:33:20;;;;;;;;;;;;;;;15.35;70.41;99768.50;3163813;28;19950;-66
2023/10/23 03:34:50;;;;;;;;;;;;;;;15.36;70.55;99764.91;3154621;28;20020;-66
2023/10/23 03:36:22;;;;;;;;;;;;;;;15.36;70.32;99764.09;3166012;28;19930;-67
2023/10/23 03:37:53;;;;;;;;;;;;;;;15.36;70.30;99759.66;3158664;28;19998;-64
2023/10/23 03:39:24;;;;;;;;;;;;;;;15.36;70.64;99756.22;3165455;28;19945;-63
2023/10/23 03:40:58;;;;;;;;;;;;;;;15.36;70.29;99762.28;3162017;28;19935;-64
2023/10/23 03:42:31;;;;;;;;;;;;;;;15.36;70.26;99764.91;3153271;28;19924;-64
2023/10/23 03:44:03;;;;;;;;;;;;;;;15.36;70.42;99758.84;3163285;28;19923;-63
2023/10/23 03:45:35;;;;;;;;;;;;;;;15.37;70.29;99760.50;3166429;28;20001;-64
2023/10/23 03:47:07;;;;;;;;;;;;;;;15.36;70.27;99750.97;3166268;28;19923;-63
2023/10/23 03:48:38;;;;;;;;;;;;;;;15.36;70.25;99748.34;3165615;28;20184;-64
2023/10/23 03:50:09;;;;;;;;;;;;;;;15.35;70.51;99757.13;3165542;28;20426;-64
2023/10/23 03:51:40;;;;;;;;;;;;;;;15.35;70.36;99755.38;3164287;28;19973;-64
2023/10/23 03:53:12;;;;;;;;;;;;;;;15.35;70.42;99757.13;3149620;28;20152;-63
2023/10/23 03:54:42;;;;;;;;;;;;;;;15.33;70.48;99757.25;3151251;28;19923;-64
2023/10/23 03:56:14;;;;;;;;;;;;;;;15.32;70.49;99752.94;3149666;28;20401;-64
2023/10/23 03:57:48;;;;;;;;;;;;;;;15.31;70.51;99758.28;3160951;28;19928;-64
2023/10/23 03:59:19;;;;;;;;;;;;;;;15.29;70.53;99749.66;3165888;28;19923;-64
2023/10/23 04:00:53;;;;;;;;;;;;;;;15.28;70.55;99758.50;3162064;28;19938;-66
2023/10/23 04:02:25;;;;;;;;;;;;;;;15.27;70.69;99756.81;3155599;28;20407;-60
2023/10/23 04:03:55;;;;;;;;;;;;;;;15.28;70.54;99758.50;3157438;28;20385;-60
2023/10/23 04:05:27;;;;;;;;;;;;;;;15.26;70.61;99755.94;3166357;28;19958;-67
2023/10/23 04:06:59;;;;;;;;;;;;;;;15.26;70.72;99750.69;3165683;28;19927;-68
2023/10/23 04:08:29;;;;;;;;;;;;;;;15.24;70.67;99750.81;3154015;28;20018;-67
2023/10/23 04:10:01;;;;;;;;;;;;;;;15.25;70.80;99754.28;3162278;28;20448;-65
2023/10/23 04:11:32;;;;;;;;;;;;;;;15.23;70.70;99751.78;3147444;28;19928;-65
2023/10/23 04:13:05;;;;;;;;;;;;;;;15.20;70.70;99754.59;3161942;28;19979;-65
2023/10/23 04:14:35;;;;;;;;;;;;;;;15.17;70.96;99759.19;3157065;28;19924;-68
2023/10/23 04:16:07;;;;;;;;;;;;;;;15.17;70.75;99757.41;3153110;28;19923;-66
2023/10/23 04:17:38;;;;;;;;;;;;;;;15.17;70.71;99752.16;3153183;28;19935;-66
2023/10/23 04:19:09;;;;;;;;;;;;;;;15.17;70.73;99751.31;3152664;28;19923;-67
2023/10/23 04:20:40;;;;;;;;;;;;;;;15.17;70.62;99753.94;3162070;28;19951;-63
2023/10/23 04:22:12;;;;;;;;;;;;;;;15.15;70.74;99753.22;3161119;28;20403;-65
2023/10/23 04:23:42;;;;;;;;;;;;;;;15.13;70.92;99755.91;3151301;28;20014;-62
2023/10/23 04:25:14;;;;;;;;;;;;;;;15.10;71.25;99750.88;3155960;28;19923;-69
2023/10/23 04:26:46;;;;;;;;;;;;;;;15.10;71.55;99757.91;3155305;28;19975;-69
2023/10/23 04:28:18;;;;;;;;;;;;;;;15.06;71.57;99754.63;3165658;28;19959;-70
2023/10/23 04:29:49;;;;;;;;;;;;;;;15.06;71.81;99761.69;3165459;28;19923;-70
2023/10/23 04:31:20;;;;;;;;;;;;;;;15.08;71.46;99763.22;3166002;28;20005;-68
2023/10/23 04:32:51;;;;;;;;;;;;;;;14.88;71.38;99724.34;3165307;28;19928;-67
2023/10/23 04:34:23;;;;;;;;;;;;;;;15.13;71.51;99762.94;3165613;28;19931;-64
2023/10/23 04:35:54;;;;;;;;;;;;;;;15.14;71.33;99759.38;3165271;28;19931;-67
2023/10/23 04:37:26;;;;;;;;;;;;;;;14.94;71.37;99729.22;3161050;28;19924;-73
2023/10/23 04:38:57;;;;;;;;;;;;;;;15.13;71.49;99769.03;3153044;28;19927;-69
2023/10/23 04:40:29;;;;;;;;;;;;;;;14.90;71.36;99730.31;3164824;28;20399;-71
2023/10/23 04:42:01;;;;;;;;;;;;;;;15.10;71.58;99771.84;3162367;28;19927;-70
2023/10/23 04:43:34;;;;;;;;;;;;;;;15.09;71.55;99772.81;3157770;28;19924;-71
2023/10/23 04:45:07;;;;;;;;;;;;;;;15.06;71.83;99765.13;3159802;28;19993;-72
2023/10/23 04:46:38;;;;;;;;;;;;;;;15.05;71.98;99768.66;3154728;28;19989;-71
2023/10/23 04:48:10;;;;;;;;;;;;;;;15.04;71.99;99774.88;3151462;28;20325;-69
2023/10/23 04:49:41;;;;;;;;;;;;;;;15.06;72.01;99772.16;3158847;28;19924;-67
2023/10/23 04:51:13;;;;;;;;;;;;;;;15.06;72.03;99780.88;3155710;28;20077;-70
2023/10/23 04:52:43;;;;;;;;;;;;;;;15.07;72.11;99779.91;3147068;28;19932;-73
2023/10/23 04:54:15;;;;;;;;;;;;;;;15.08;72.14;99778.97;3150907;28;19924;-71
2023/10/23 04:55:47;;;;;;;;;;;;;;;15.07;72.15;99782.53;3149256;28;19928;-69
2023/10/23 04:57:17;;;;;;;;;;;;;;;15.07;71.96;99790.41;3152897;28;20018;-71
2023/10/23 04:58:50;;;;;;;;;;;;;;;15.07;72.21;99787.78;3164440;28;19923;-69
2023/10/23 05:00:22;;;;;;;;;;;;;;;15.06;72.23;99786.13;3161007;28;19928;-70
2023/10/23 05:01:54;;;;;;;;;;;;;;;15.07;72.19;99793.03;3154726;28;19927;-67
2023/10/23 05:03:25;;;;;;;;;;;;;;;15.06;72.15;99788.72;3154296;28;20505;-67
2023/10/23 05:04:56;;;;;;;;;;;;;;;15.06;72.35;99796.59;3165150;28;20011;-73
2023/10/23 05:06:27;;;;;;;;;;;;;;;15.07;72.25;99795.66;3163134;28;19934;-74
2023/10/23 05:07:59;;;;;;;;;;;;;;;15.08;72.29;99797.31;3160017;28;20130;-75
2023/10/23 05:09:30;;;;;;;;;;;;;;;15.08;72.35;99796.50;3143144;28;19997;-73
2023/10/23 05:11:08;;;;;;;;;;;;;;;15.09;72.57;99803.44;3152373;28;19994;-73
2023/10/23 05:12:39;;;;;;;;;;;;;;;15.08;72.47;99799.09;3151523;28;19924;-71
2023/10/23 05:14:12;;;;;;;;;;;;;;;15.11;72.62;99797.13;3164553;28;19924;-70
2023/10/23 05:15:43;;;;;;;;;;;;;;;15.12;72.54;99801.44;3164275;28;20010;-72
2023/10/23 05:17:15;;;;;;;;;;;;;;;15.13;72.59;99799.66;3165144;27;19924;-69
2023/10/23 05:18:46;;;;;;;;;;;;;;;15.14;72.46;99810.03;3164679;28;19927;-72
2023/10/23 05:20:18;;;;;;;;;;;;;;;15.16;72.53;99815.22;3165415;28;19931;-70
2023/10/23 05:21:48;;;;;;;;;;;;;;;15.16;72.20;99818.66;3161644;28;19924;-69
2023/10/23 05:23:20;;;;;;;;;;;;;;;15.17;72.30;99823.00;3155673;28;20000;-70
2023/10/23 05:24:51;;;;;;;;;;;;;;;15.20;72.16;99828.03;3158360;28;20029;-70
2023/10/23 05:26:22;;;;;;;;;;;;;;;15.20;72.17;99820.19;3162469;28;20054;-68
2023/10/23 05:27:53;;;;;;;;;;;;;;;15.21;72.23;99816.59;3164291;28;20493;-66
2023/10/23 05:29:27;;;;;;;;;;;;;;;15.23;72.09;99825.22;3156360;28;19935;-69
2023/10/23 05:30:57;;;;;;;;;;;;;;;15.25;72.06;99823.31;3155865;28;19928;-70
2023/10/23 05:32:29;;;;;;;;;;;;;;;15.28;72.08;99819.66;3153760;28;20329;-68
2023/10/23 05:34:01;;;;;;;;;;;;;;;15.32;71.88;99826.41;3163690;28;20005;-68
2023/10/23 05:35:31;;;;;;;;;;;;;;;15.35;71.88;99827.97;3160108;28;19928;-69
2023/10/23 05:37:03;;;;;;;;;;;;;;;15.38;71.82;99828.66;3164880;28;19931;-70
2023/10/23 05:38:35;;;;;;;;;;;;;;;15.43;71.77;99828.31;3164513;28;20246;-68
2023/10/23 05:40:07;;;;;;;;;;;;;;;15.48;71.64;99837.59;3164487;28;20014;-71
2023/10/23 05:41:39;;;;;;;;;;;;;;;15.51;71.29;99833.94;3144904;28;20273;-70
2023/10/23 05:43:16;;;;;;;;;;;;;;;15.54;71.40;99833.72;3160140;28;19927;-69
2023/10/23 05:44:50;;;;;;;;;;;;;;;15.58;71.11;99834.38;3168245;28;20323;-68
2023/10/23 05:46:20;;;;;;;;;;;;;;;15.62;71.18;99839.31;3167636;28;20010;-68
2023/10/23 05:47:52;;;;;;;;;;;;;;;15.67;71.11;99836.38;3169172;28;20353;-69
2023/10/23 05:49:23;;;;;;;;;;;;;;;15.69;70.84;99845.88;3169773;28;19952;-67
2023/10/23 05:50:58;;;;;;;;;;;;;;;15.72;70.88;99842.22;3161778;28;20513;-66
2023/10/23 05:52:29;;;;;;;;;;;;;;;15.77;70.71;99839.28;3154553;28;20008;-68
2023/10/23 05:54:02;;;;;;;;;;;;;;;15.77;70.79;99842.75;3158212;28;19995;-65
2023/10/23 05:55:33;;;;;;;;;;;;;;;15.78;70.76;99847.06;3158260;28;19923;-66
2023/10/23 05:57:05;;;;;;;;;;;;;;;15.80;70.76;99850.44;3153130;28;20309;-66
2023/10/23 05:58:35;;;;;;;;;;;;;;;15.84;70.56;99845.81;3169687;28;19919;-67
2023/10/23 06:00:09;;;;;;;;;;;;;;;15.87;70.55;99841.19;3168332;28;19920;-68
2023/10/23 06:01:40;;;;;;;;;;;;;;;15.93;70.46;99840.78;3157111;28;19926;-68
2023/10/23 06:03:12;;;;;;;;;;;;;;;16.00;70.38;99851.75;3159439;28;20308;-71
2023/10/23 06:04:44;;;;;;;;;;;;;;;16.10;69.92;99849.34;3164934;28;20030;-70
2023/10/23 06:06:15;;;;;;;;;;;;;;;16.22;69.84;99845.03;3168148;28;19919;-67
2023/10/23 06:07:46;;;;;;;;;;;;;;;16.35;69.55;99856.38;3166564;28;19924;-70
2023/10/23 06:09:17;;;;;;;;;;;;;;;16.49;69.46;99852.81;3157358;28;19920;-67
2023/10/23 06:10:48;;;;;;;;;;;;;;;16.63;69.21;99849.25;3153956;28;19955;-68
2023/10/23 06:12:20;;;;;;;;;;;;;;;16.79;68.62;99848.06;3161398;28;19991;-67
2023/10/23 06:13:51;;;;;;;;;;;;;;;16.98;68.41;99849.44;3168967;28;19930;-66
2023/10/23 06:15:24;;;;;;;;;;;;;;;17.17;67.76;99844.53;3169855;28;20427;-67
2023/10/23 06:16:54;;;;;;;;;;;;;;;17.38;66.95;99852.66;3163364;28;19924;-67
2023/10/23 06:18:26;;;;;;;;;;;;;;;17.61;66.55;99852.78;3162760;28;19926;-67
2023/10/23 06:19:57;;;;;;;;;;;;;;;17.87;65.85;99859.63;3168384;28;19930;-71
2023/10/23 06:21:29;;;;;;;;;;;;;;;18.12;65.25;99852.50;3171884;28;19931;-74
2023/10/23 06:22:59;;;;;;;;;;;;;;;18.39;64.53;99849.56;3171972;28;19923;-70
2023/10/23 06:24:31;;;;;;;;;;;;;;;18.68;63.82;99852.56;3172171;28;20006;-69
2023/10/23 06:26:03;;;;;;;;;;;;;;;18.93;63.10;99862.09;3168343;28;19923;-69
2023/10/23 06:27:33;;;;;;;;;;;;;;;19.21;62.56;99859.88;3172572;28;19968;-72
2023/10/23 06:29:06;;;;;;;;;;;;;;;19.48;61.88;99862.94;3172013;28;20018;-69
2023/10/23 06:30:38;;;;;;;;;;;;;;;19.74;61.13;99863.47;3166667;28;19958;-71
2023/10/23 06:32:11;;;;;;;;;;;;;;;19.90;60.23;99876.25;3158613;28;20413;-70
2023/10/23 06:33:42;;;;;;;;;;;;;;;20.07;59.88;99861.63;3158626;28;19942;-69
2023/10/23 06:35:14;;;;;;;;;;;;;;;20.26;59.32;99860.94;3160601;28;19928;-71
2023/10/23 06:36:46;;;;;;;;;;;;;;;20.44;59.18;99850.59;3172240;28;20339;-73
2023/10/23 06:38:16;;;;;;;;;;;;;;;20.65;59.24;99850.59;3172510;28;19920;-74
2023/10/23 06:39:48;;;;;;;;;;;;;;;20.89;58.91;99848.47;3168659;28;20057;-73
2023/10/23 06:41:18;;;;;;;;;;;;;;;21.25;58.72;99845.34;3152305;28;19930;-67
2023/10/23 06:42:50;;;;;;;;;;;;;;;21.77;57.78;99854.78;3170753;28;20037;-70
2023/10/23 06:44:20;;;;;;;;;;;;;;;22.39;56.96;99847.31;3171795;28;19969;-68
2023/10/23 06:45:55;;;;;;;;;;;;;;;23.09;55.21;99850.38;3166865;28;19931;-73
2023/10/23 06:47:26;;;;;;;;;;;;;;;23.83;53.47;99846.66;3171953;28;20385;-70
2023/10/23 06:48:58;;;;;;;;;;;;;;;24.43;51.58;99843.31;3172350;28;19930;-73
2023/10/23 06:50:29;;;;;;;;;;;;;;;24.97;50.44;99837.75;3154762;28;20142;-72
2023/10/23 06:52:01;;;;;;;;;;;;;;;25.52;49.66;99841.72;3171762;28;19924;-69
2023/10/23 06:53:33;;;;;;;;;;;;;;;26.05;48.49;99840.44;3172222;28;19927;-68
2023/10/23 06:55:06;;;;;;;;;;;;;;;26.59;47.45;99847.84;3172073;28;19963;-67
2023/10/23 06:56:36;;;;;;;;;;;;;;;27.04;46.66;99847.19;3154164;28;19920;-68
2023/10/23 06:58:08;;;;;;;;;;;;;;;27.45;45.93;99842.47;3169830;28;19919;-67
2023/10/23 06:59:39;;;;;;;;;;;;;;;27.84;45.23;99844.22;3171564;28;19988;-72
2023/10/23 07:01:13;;;;;;;;;;;;;;;28.28;44.02;99848.00;3172321;28;19920;-69
2023/10/23 07:02:43;;;;;;;;;;;;;;;28.62;43.37;99843.97;3171569;28;19928;-68
2023/10/23 07:04:15;;;;;;;;;;;;;;;28.78;42.91;99841.94;3162363;28;19927;-69
2023/10/23 07:05:46;;;;;;;;;;;;;;;28.95;42.87;99837.19;3156362;28;20001;-69
2023/10/23 07:07:17;;;;;;;;;;;;;;;29.11;42.52;99838.88;3154400;28;19932;-69
2023/10/23 07:08:48;;;;;;;;;;;;;;;29.18;42.37;99837.09;3161188;28;19927;-72
2023/10/23 07:10:20;;;;;;;;;;;;;;;29.23;42.90;99834.69;3162618;28;20481;-72
2023/10/23 07:11:51;;;;;;;;;;;;;;;29.31;42.61;99833.72;3151140;28;20424;-72
2023/10/23 07:13:22;;;;;;;;;;;;;;;29.43;42.27;99832.22;3157950;28;20396;-71
2023/10/23 07:14:53;;;;;;;;;;;;;;;29.51;42.17;99835.78;3158962;28;19962;-68
2023/10/23 07:16:26;;;;;;;;;;;;;;;29.62;42.56;99833.44;3168497;28;19924;-68
2023/10/23 07:17:57;;;;;;;;;;;;;;;29.74;41.46;99830.25;3164300;28;19924;-72
2023/10/23 07:19:29;;;;;;;;;;;;;;;29.85;41.22;99833.25;3162961;28;19923;-70
2023/10/23 07:20:59;;;;;;;;;;;;;;;30.07;41.13;99834.03;3166549;28;20427;-69
2023/10/23 07:22:31;;;;;;;;;;;;;;;30.31;39.97;99834.63;3162869;28;19919;-71
2023/10/23 07:24:02;;;;;;;;;;;;;;;30.29;39.29;99829.47;3162176;28;20249;-72
2023/10/23 07:25:34;;;;;;;;;;;;;;;30.42;38.80;99822.53;3150484;28;20017;-73
2023/10/23 07:27:04;;;;;;;;;;;;;;;30.77;38.47;99821.47;3154889;28;19927;-72
2023/10/23 07:28:38;;;;;;;;;;;;;;;31.18;38.59;99812.53;3168276;28;19924;-73
2023/10/23 07:30:09;;;;;;;;;;;;;;;31.60;37.39;99807.88;3159524;28;19931;-72
2023/10/23 07:31:42;;;;;;;;;;;;;;;32.01;37.15;99801.47;3169944;28;19920;-70
2023/10/23 07:33:13;;;;;;;;;;;;;;;32.39;36.38;99801.59;3156379;28;19920;-70
2023/10/23 07:34:45;;;;;;;;;;;;;;;32.75;35.70;99805.66;3151556;28;20265;-70
2023/10/23 07:36:15;;;;;;;;;;;;;;;33.05;34.97;99805.13;3165325;28;20002;-68
2023/10/23 07:37:47;;;;;;;;;;;;;;;33.09;34.79;99803.66;3162213;28;20412;-67
2023/10/23 07:39:18;;;;;;;;;;;;;;;33.03;33.94;99804.50;3164641;28;20040;-67
2023/10/23 07:40:49;;;;;;;;;;;;;;;32.96;34.33;99809.09;3160988;28;19947;-69
2023/10/23 07:42:20;;;;;;;;;;;;;;;32.60;34.67;99805.94;3164771;28;20417;-66
2023/10/23 07:43:52;;;;;;;;;;;;;;;32.38;34.56;99817.97;3171258;28;20048;-65
2023/10/23 07:45:23;;;;;;;;;;;;;;;32.30;35.54;99813.66;3171696;28;20297;-69
2023/10/23 07:46:56;;;;;;;;;;;;;;;32.32;35.11;99818.81;3159587;28;19924;-69
2023/10/23 07:48:27;;;;;;;;;;;;;;;32.37;34.86;99813.63;3159455;28;19920;-69
2023/10/23 07:49:58;;;;;;;;;;;;;;;32.24;35.02;99810.94;3168594;28;19919;-70
2023/10/23 07:51:29;;;;;;;;;;;;;;;31.97;35.39;99810.16;3168783;28;19924;-70
2023/10/23 07:53:00;;;;;;;;;;;;;;;31.77;35.07;99815.53;3171328;28;19924;-68
2023/10/23 07:54:31;;;;;;;;;;;;;;;31.79;35.20;99810.75;3171317;28;19924;-68
2023/10/23 07:56:04;;;;;;;;;;;;;;;32.01;35.25;99806.84;3161591;28;20016;-68
2023/10/23 07:57:34;;;;;;;;;;;;;;;32.29;35.03;99809.28;3156735;28;20330;-72